Aliceville, Alabama
Current Conditions -  °F | °C
As of 1:53 AM on Sunday 23 Nov 2014 (Local Time) from KTCL Reporting Station
Overcast Overcast  
Wind Chill: 15°   Ceiling: 1700
Heat Index: 15°   Visibility: 10mi
Dew Point: 12°   Wind: 9mph
Humidity: 81%   Direction: 100°E
Pressure: 29.97"   Gusts: NA
Location:  33.13°N, 88.15°W
Report Text: KTCL 230753Z AUTO 10008KT 10SM OVC017 15/12 A2997 RMK AO2 RAE36 SLP145 P0000 T01500117
Loading
Personal Weather Stations






























Interactive Weather Map New forecast layout! Learn more

10-Day Weather Forecast

Advertisements
Track Severe Weather on mobile